Time;durP1;ratioP1;P1;durP2;ratioP2;P2;SDS_P1;SDS_P2;PMS_P1;PMS_P2;Temp;Humidity;BMP_temperature;BMP_pressure;BME280_temperature;BME280_humidity;BME280_pressure;Samples;Min_cycle;Max_cycle;Signal;HPM_P1;HPM_P2
2022/05/30 00:01:51;;;;;;;;;;;;;;;;;;5032835;28;19979;-66
2022/05/30 00:04:17;;;;;;;;;;;;;;;;;;5032776;28;19928;-66
2022/05/30 00:06:43;;;;;;;;;;;;;;;;;;5032055;28;19955;-66
2022/05/30 00:09:13;;;;;;;;;;;;;;;;;;5032833;28;20295;-66
2022/05/30 00:11:39;;;;;;;;;;;;;;;;;;5032375;28;19921;-66
2022/05/30 00:14:05;;;;;;;;;;;;;;;;;;5031969;28;19925;-66
2022/05/30 00:16:31;;;;;;;;;;;;;;;;;;5032589;28;20288;-66
2022/05/30 00:18:57;;;;;;;;;;;;;;;;;;5032275;28;19925;-66
2022/05/30 00:21:23;;;;;;;;;;;;;;;;;;5031693;28;19928;-66
2022/05/30 00:23:49;;;;;;;;;;;;;;;;;;5030927;28;19921;-66
2022/05/30 00:26:15;;;;;;;;;;;;;;;;;;5032327;28;20268;-66
2022/05/30 00:28:41;;;;;;;;;;;;;;;;;;5031691;28;19979;-66
2022/05/30 00:31:07;;;;;;;;;;;;;;;;;;5032269;28;19977;-66
2022/05/30 00:33:33;;;;;;;;;;;;;;;;;;5032103;28;19972;-66
2022/05/30 00:35:59;;;;;;;;;;;;;;;;;;5031276;28;20379;-66
2022/05/30 00:38:25;;;;;;;;;;;;;;;;;;5032062;28;19921;-66
2022/05/30 00:40:51;;;;;;;;;;;;;;;;;;5031571;28;20442;-66
2022/05/30 00:43:16;;;;;;;;;;;;;;;;;;5031447;28;19925;-66
2022/05/30 00:45:42;;;;;;;;;;;;;;;;;;5032041;28;19939;-66
2022/05/30 00:48:08;;;;;;;;;;;;;;;;;;5031844;28;19921;-66
2022/05/30 00:50:34;;;;;;;;;;;;;;;;;;5031112;28;20020;-66
2022/05/30 00:53:00;;;;;;;;;;;;;;;;;;5031812;28;19925;-66
2022/05/30 00:55:27;;;;;;;;;;;;;;;;;;5031843;28;19983;-66
2022/05/30 00:57:53;;;;;;;;;;;;;;;;;;5030911;28;20426;-66
2022/05/30 01:00:19;;;;;;;;;;;;;;;;;;5031707;28;19924;-66
2022/05/30 01:02:44;;;;;;;;;;;;;;;;;;5031914;28;19975;-66
2022/05/30 01:07:55;;;;;;;;;;;;;;;;;;5031643;28;19921;-66
2022/05/30 01:10:21;;;;;;;;;;;;;;;;;;5031213;28;20386;-66
2022/05/30 01:12:49;;;;;;;;;;;;;;;;;;5029487;28;19929;-66
2022/05/30 01:15:15;;;;;;;;;;;;;;;;;;5031485;28;19990;-66
2022/05/30 01:17:41;;;;;;;;;;;;;;;;;;5031065;28;19921;-66
2022/05/30 01:20:07;;;;;;;;;;;;;;;;;;5030551;28;19940;-66
2022/05/30 01:22:33;;;;;;;;;;;;;;;;;;5031369;28;19921;-66
2022/05/30 01:24:59;;;;;;;;;;;;;;;;;;5030017;28;19921;-66
2022/05/30 01:27:25;;;;;;;;;;;;;;;;;;5030698;28;19921;-66
2022/05/30 01:29:51;;;;;;;;;;;;;;;;;;5031145;28;20371;-66
2022/05/30 01:32:18;;;;;;;;;;;;;;;;;;5030964;28;19921;-66
2022/05/30 01:34:44;;;;;;;;;;;;;;;;;;5030163;28;20035;-66
2022/05/30 01:37:10;;;;;;;;;;;;;;;;;;5031137;28;20203;-66
2022/05/30 01:39:35;;;;;;;;;;;;;;;;;;5029364;28;19921;-66
2022/05/30 01:42:01;;;;;;;;;;;;;;;;;;5028674;28;19925;-66
2022/05/30 01:44:27;;;;;;;;;;;;;;;;;;5030989;28;19976;-66
2022/05/30 01:46:53;;;;;;;;;;;;;;;;;;5030850;28;20008;-66
2022/05/30 01:49:19;;;;;;;;;;;;;;;;;;5030218;28;20003;-66
2022/05/30 01:51:45;;;;;;;;;;;;;;;;;;5030549;28;20433;-66
2022/05/30 01:54:11;;;;;;;;;;;;;;;;;;5030809;28;19929;-66
2022/05/30 01:56:37;;;;;;;;;;;;;;;;;;5030213;28;19925;-66
2022/05/30 01:59:03;;;;;;;;;;;;;;;;;;5030562;28;19928;-66
2022/05/30 02:01:29;;;;;;;;;;;;;;;;;;5030843;28;19928;-66
2022/05/30 02:03:54;;;;;;;;;;;;;;;;;;5029824;28;19921;-66
2022/05/30 02:06:20;;;;;;;;;;;;;;;;;;5030523;28;19932;-66
2022/05/30 02:08:47;;;;;;;;;;;;;;;;;;5030220;28;19925;-66
2022/05/30 02:11:13;;;;;;;;;;;;;;;;;;5029963;28;19921;-66
2022/05/30 02:13:39;;;;;;;;;;;;;;;;;;5030598;28;19925;-66
2022/05/30 02:18:50;;;;;;;;;;;;;;;;;;5029925;28;19925;-66
2022/05/30 02:21:16;;;;;;;;;;;;;;;;;;5030696;28;19927;-66
2022/05/30 02:23:42;;;;;;;;;;;;;;;;;;5030533;28;19956;-66
2022/05/30 02:26:08;;;;;;;;;;;;;;;;;;5029534;28;19921;-66
2022/05/30 02:28:33;;;;;;;;;;;;;;;;;;5030500;28;19929;-66
2022/05/30 02:30:59;;;;;;;;;;;;;;;;;;5030393;28;20498;-66
2022/05/30 02:38:54;;;;;;;;;;;;;;;;;;5030252;28;20310;-66
2022/05/30 02:41:20;;;;;;;;;;;;;;;;;;5029478;28;19936;-66
2022/05/30 02:43:46;;;;;;;;;;;;;;;;;;5030213;28;19960;-66
2022/05/30 02:46:12;;;;;;;;;;;;;;;;;;5028712;28;19925;-66
2022/05/30 02:48:38;;;;;;;;;;;;;;;;;;5029959;28;19929;-66
2022/05/30 02:51:04;;;;;;;;;;;;;;;;;;5030031;28;20391;-66
2022/05/30 02:53:30;;;;;;;;;;;;;;;;;;5030338;28;20422;-66
2022/05/30 02:55:56;;;;;;;;;;;;;;;;;;5029801;28;19921;-66
2022/05/30 02:58:21;;;;;;;;;;;;;;;;;;5029951;28;20017;-66
2022/05/30 03:00:47;;;;;;;;;;;;;;;;;;5030097;28;19921;-66
2022/05/30 03:03:13;;;;;;;;;;;;;;;;;;5029335;28;20383;-66
2022/05/30 03:05:39;;;;;;;;;;;;;;;;;;5030220;28;19921;-66
2022/05/30 03:08:05;;;;;;;;;;;;;;;;;;5030535;28;20328;-66
2022/05/30 03:10:31;;;;;;;;;;;;;;;;;;5029096;28;20299;-66
2022/05/30 03:12:57;;;;;;;;;;;;;;;;;;5029992;28;19930;-66
2022/05/30 03:15:23;;;;;;;;;;;;;;;;;;5029735;28;20415;-66
2022/05/30 03:17:51;;;;;;;;;;;;;;;;;;5044639;28;19921;-66
2022/05/30 03:20:17;;;;;;;;;;;;;;;;;;5029953;28;20008;-66
2022/05/30 03:22:43;;;;;;;;;;;;;;;;;;5048805;28;20008;-66
2022/05/30 03:25:09;;;;;;;;;;;;;;;;;;5032822;28;19921;-66
2022/05/30 03:27:34;;;;;;;;;;;;;;;;;;5033900;28;19925;-66
2022/05/30 03:30:00;;;;;;;;;;;;;;;;;;5031784;28;19976;-66
2022/05/30 03:32:26;;;;;;;;;;;;;;;;;;5032882;28;19935;-66
2022/05/30 03:34:52;;;;;;;;;;;;;;;;;;5033037;28;19925;-66
2022/05/30 03:37:18;;;;;;;;;;;;;;;;;;5033441;28;19927;-66
2022/05/30 03:39:44;;;;;;;;;;;;;;;;;;5032448;28;20399;-66
2022/05/30 03:42:13;;;;;;;;;;;;;;;;;;5032944;28;20333;-66
2022/05/30 03:44:39;;;;;;;;;;;;;;;;;;5033039;28;19944;-66
2022/05/30 03:47:05;;;;;;;;;;;;;;;;;;5032861;28;19925;-66
2022/05/30 03:49:31;;;;;;;;;;;;;;;;;;5032761;28;20346;-66
2022/05/30 03:51:56;;;;;;;;;;;;;;;;;;5031572;28;19925;-66
2022/05/30 03:54:22;;;;;;;;;;;;;;;;;;5032345;28;20284;-66
2022/05/30 03:56:48;;;;;;;;;;;;;;;;;;5033013;28;19960;-66
2022/05/30 03:59:14;;;;;;;;;;;;;;;;;;5032740;28;19943;-66
2022/05/30 04:01:40;;;;;;;;;;;;;;;;;;5032749;28;19925;-66
2022/05/30 04:04:06;;;;;;;;;;;;;;;;;;5032572;28;19979;-66
2022/05/30 04:06:32;;;;;;;;;;;;;;;;;;5031731;28;19925;-66
2022/05/30 04:08:58;;;;;;;;;;;;;;;;;;5032694;28;19936;-66
2022/05/30 04:11:24;;;;;;;;;;;;;;;;;;5030498;28;19921;-66
2022/05/30 04:13:50;;;;;;;;;;;;;;;;;;5032547;28;19932;-66
2022/05/30 04:16:16;;;;;;;;;;;;;;;;;;5032739;28;19928;-66
2022/05/30 04:18:42;;;;;;;;;;;;;;;;;;5032216;28;20307;-66
2022/05/30 04:21:08;;;;;;;;;;;;;;;;;;5032450;28;20390;-66
2022/05/30 04:23:34;;;;;;;;;;;;;;;;;;5032156;28;19925;-66
2022/05/30 04:26:00;;;;;;;;;;;;;;;;;;5031666;28;19935;-66
2022/05/30 04:28:26;;;;;;;;;;;;;;;;;;5032349;28;20283;-66
2022/05/30 04:30:51;;;;;;;;;;;;;;;;;;5032436;28;19927;-66
2022/05/30 04:33:17;;;;;;;;;;;;;;;;;;5031207;28;19929;-66
2022/05/30 04:35:43;;;;;;;;;;;;;;;;;;5032124;28;19922;-66
2022/05/30 04:38:09;;;;;;;;;;;;;;;;;;5032750;28;19982;-66
2022/05/30 04:40:35;;;;;;;;;;;;;;;;;;5032026;28;20375;-66
2022/05/30 04:43:01;;;;;;;;;;;;;;;;;;5026433;28;19925;-66
2022/05/30 04:45:27;;;;;;;;;;;;;;;;;;5032350;28;19929;-66
2022/05/30 04:47:53;;;;;;;;;;;;;;;;;;5039617;28;20230;-66
2022/05/30 04:50:19;;;;;;;;;;;;;;;;;;5032140;28;20277;-66
2022/05/30 04:52:45;;;;;;;;;;;;;;;;;;5032102;28;19921;-66
2022/05/30 04:55:11;;;;;;;;;;;;;;;;;;5032101;28;19925;-66
2022/05/30 04:57:37;;;;;;;;;;;;;;;;;;5031712;28;19947;-66
2022/05/30 05:00:03;;;;;;;;;;;;;;;;;;5032531;28;19921;-66
2022/05/30 05:02:29;;;;;;;;;;;;;;;;;;5030773;28;20548;-66
2022/05/30 05:04:55;;;;;;;;;;;;;;;;;;5031368;28;20004;-66
2022/05/30 05:07:21;;;;;;;;;;;;;;;;;;5030944;28;19970;-66
2022/05/30 05:09:47;;;;;;;;;;;;;;;;;;5030506;28;19925;-66
2022/05/30 05:12:13;;;;;;;;;;;;;;;;;;5029273;28;19971;-66
2022/05/30 05:14:38;;;;;;;;;;;;;;;;;;5029367;28;19925;-66
2022/05/30 05:17:04;;;;;;;;;;;;;;;;;;5030333;28;20379;-66
2022/05/30 05:19:32;;;;;;;;;;;;;;;;;;5031212;28;19925;-66
2022/05/30 05:21:58;;;;;;;;;;;;;;;;;;5031150;28;19921;-66
2022/05/30 05:24:24;;;;;;;;;;;;;;;;;;5030591;28;19925;-66
2022/05/30 05:26:50;;;;;;;;;;;;;;;;;;5031061;28;19929;-66
2022/05/30 05:29:16;;;;;;;;;;;;;;;;;;5030972;28;20383;-66
2022/05/30 05:31:42;;;;;;;;;;;;;;;;;;5030604;28;19925;-66
2022/05/30 05:34:08;;;;;;;;;;;;;;;;;;5032235;28;19931;-66
2022/05/30 05:36:34;;;;;;;;;;;;;;;;;;5031251;28;19925;-66
2022/05/30 05:39:00;;;;;;;;;;;;;;;;;;5031292;28;19921;-66
2022/05/30 05:41:26;;;;;;;;;;;;;;;;;;5030636;28;19925;-66
2022/05/30 05:43:55;;;;;;;;;;;;;;;;;;5030660;28;19986;-66
2022/05/30 05:46:21;;;;;;;;;;;;;;;;;;5031049;28;20051;-65
2022/05/30 05:48:47;;;;;;;;;;;;;;;;;;5031524;28;19951;-65
2022/05/30 05:51:15;;;;;;;;;;;;;;;;;;5030946;28;19940;-65
2022/05/30 05:53:41;;;;;;;;;;;;;;;;;;5030336;28;20023;-66
2022/05/30 05:56:07;;;;;;;;;;;;;;;;;;5031127;28;20008;-65
2022/05/30 05:58:33;;;;;;;;;;;;;;;;;;5030892;28;19953;-66
2022/05/30 06:00:59;;;;;;;;;;;;;;;;;;5030484;28;19921;-66
2022/05/30 06:03:25;;;;;;;;;;;;;;;;;;5031519;28;19991;-66
2022/05/30 06:05:51;;;;;;;;;;;;;;;;;;5031087;28;20035;-65
2022/05/30 06:08:17;;;;;;;;;;;;;;;;;;5029108;28;19947;-66
2022/05/30 06:11:28;;;;;;;;;;;;;;;;;;5028267;28;19921;-65
2022/05/30 06:13:29;;;;;;;;;;;;;;;;;;5022988;28;19951;-66
2022/05/30 06:15:55;;;;;;;;;;;;;;;;;;5028701;28;20044;-67
2022/05/30 06:18:21;;;;;;;;;;;;;;;;;;5029014;28;19925;-66
2022/05/30 06:20:47;;;;;;;;;;;;;;;;;;5026388;28;19951;-67
2022/05/30 06:23:14;;;;;;;;;;;;;;;;;;5023398;28;19921;-67
2022/05/30 06:25:41;;;;;;;;;;;;;;;;;;5031143;28;19921;-66
2022/05/30 06:28:07;;;;;;;;;;;;;;;;;;5010788;28;19937;-65
2022/05/30 06:30:33;;;;;;;;;;;;;;;;;;5028388;28;19921;-66
2022/05/30 06:32:59;;;;;;;;;;;;;;;;;;5029956;28;19925;-66
2022/05/30 06:35:25;;;;;;;;;;;;;;;;;;5031156;28;19943;-67
2022/05/30 06:37:51;;;;;;;;;;;;;;;;;;5003482;28;20003;-68
2022/05/30 06:40:17;;;;;;;;;;;;;;;;;;5027113;28;19964;-68
2022/05/30 06:42:44;;;;;;;;;;;;;;;;;;5017689;28;19921;-66
2022/05/30 06:45:10;;;;;;;;;;;;;;;;;;5029255;28;19928;-66
2022/05/30 06:47:36;;;;;;;;;;;;;;;;;;5027304;28;19924;-65
2022/05/30 06:50:02;;;;;;;;;;;;;;;;;;5026543;28;19925;-65
2022/05/30 06:52:28;;;;;;;;;;;;;;;;;;5029689;28;20008;-66
2022/05/30 06:54:54;;;;;;;;;;;;;;;;;;5030635;28;20012;-64
2022/05/30 07:00:04;;;;;;;;;;;;;;;;;;5029070;28;20303;-67
2022/05/30 07:02:30;;;;;;;;;;;;;;;;;;5029969;28;19932;-62
2022/05/30 07:04:56;;;;;;;;;;;;;;;;;;5032898;28;19925;-64
2022/05/30 07:07:22;;;;;;;;;;;;;;;;;;5031752;28;19924;-62
2022/05/30 07:09:48;;;;;;;;;;;;;;;;;;5029845;28;19948;-64
2022/05/30 07:12:16;;;;;;;;;;;;;;;;;;5032334;28;20031;-65
2022/05/30 07:14:42;;;;;;;;;;;;;;;;;;5031835;28;19929;-59
2022/05/30 07:17:07;;;;;;;;;;;;;;;;;;5033946;28;20339;-58
2022/05/30 07:19:33;;;;;;;;;;;;;;;;;;5030563;28;19944;-58
2022/05/30 07:21:59;;;;;;;;;;;;;;;;;;5031343;28;19925;-59
2022/05/30 07:24:25;;;;;;;;;;;;;;;;;;5032331;28;19928;-58
2022/05/30 07:26:51;;;;;;;;;;;;;;;;;;5030554;28;19929;-56
2022/05/30 07:29:17;;;;;;;;;;;;;;;;;;5030156;28;19963;-57
2022/05/30 07:31:43;;;;;;;;;;;;;;;;;;5027706;28;19960;-57
2022/05/30 07:34:09;;;;;;;;;;;;;;;;;;5032182;28;19979;-57
2022/05/30 07:36:35;;;;;;;;;;;;;;;;;;5031951;28;19924;-61
2022/05/30 07:39:01;;;;;;;;;;;;;;;;;;5030392;28;19932;-61
2022/05/30 07:41:28;;;;;;;;;;;;;;;;;;5047472;28;19933;-59
2022/05/30 07:43:54;;;;;;;;;;;;;;;;;;5031715;28;19935;-58
2022/05/30 07:46:20;;;;;;;;;;;;;;;;;;5032541;28;19936;-59
2022/05/30 07:48:46;;;;;;;;;;;;;;;;;;5041316;28;19936;-60
2022/05/30 07:51:11;;;;;;;;;;;;;;;;;;5030972;28;19947;-59
2022/05/30 07:53:37;;;;;;;;;;;;;;;;;;5032791;28;19968;-59
2022/05/30 07:56:03;;;;;;;;;;;;;;;;;;5030920;28;19955;-59
2022/05/30 07:58:29;;;;;;;;;;;;;;;;;;5031483;28;19925;-59
2022/05/30 08:00:55;;;;;;;;;;;;;;;;;;5031238;28;19947;-58
2022/05/30 08:03:21;;;;;;;;;;;;;;;;;;5032095;28;19925;-59
2022/05/30 08:05:47;;;;;;;;;;;;;;;;;;5030893;28;20019;-58
2022/05/30 08:08:13;;;;;;;;;;;;;;;;;;5044413;28;20004;-60
2022/05/30 08:10:39;;;;;;;;;;;;;;;;;;5031061;28;19921;-58
2022/05/30 08:13:05;;;;;;;;;;;;;;;;;;5031050;28;19929;-59
2022/05/30 08:15:31;;;;;;;;;;;;;;;;;;5044597;28;19925;-58
2022/05/30 08:17:57;;;;;;;;;;;;;;;;;;5030391;28;19954;-60
2022/05/30 08:20:23;;;;;;;;;;;;;;;;;;5029955;28;19921;-59
2022/05/30 08:22:49;;;;;;;;;;;;;;;;;;5030780;28;19921;-60
2022/05/30 08:25:15;;;;;;;;;;;;;;;;;;5031292;28;19924;-58
2022/05/30 08:27:42;;;;;;;;;;;;;;;;;;5031193;28;19978;-59
2022/05/30 08:30:08;;;;;;;;;;;;;;;;;;5029314;28;20016;-60
2022/05/30 08:32:33;;;;;;;;;;;;;;;;;;5031092;28;20008;-60
2022/05/30 08:35:00;;;;;;;;;;;;;;;;;;5030636;28;20029;-60
2022/05/30 08:37:30;;;;;;;;;;;;;;;;;;5030742;28;20352;-58
2022/05/30 08:42:40;;;;;;;;;;;;;;;;;;5030720;28;19925;-61
2022/05/30 08:45:09;;;;;;;;;;;;;;;;;;5029907;28;19929;-60
2022/05/30 08:47:35;;;;;;;;;;;;;;;;;;5029199;28;19933;-60
2022/05/30 08:50:01;;;;;;;;;;;;;;;;;;5027930;28;19924;-59
2022/05/30 08:52:27;;;;;;;;;;;;;;;;;;5027276;28;19975;-59
2022/05/30 08:54:53;;;;;;;;;;;;;;;;;;5030863;28;19929;-60
2022/05/30 08:57:19;;;;;;;;;;;;;;;;;;5031803;28;20571;-58
2022/05/30 08:59:45;;;;;;;;;;;;;;;;;;5026524;28;19925;-59
2022/05/30 09:02:11;;;;;;;;;;;;;;;;;;5029951;28;19925;-58
2022/05/30 09:04:37;;;;;;;;;;;;;;;;;;5029832;28;19929;-59
2022/05/30 09:07:03;;;;;;;;;;;;;;;;;;5030277;28;19925;-59
2022/05/30 09:09:29;;;;;;;;;;;;;;;;;;5029899;28;19936;-58
2022/05/30 09:11:55;;;;;;;;;;;;;;;;;;5030460;28;19921;-59
2022/05/30 09:14:21;;;;;;;;;;;;;;;;;;5028930;28;19929;-59
2022/05/30 09:16:47;;;;;;;;;;;;;;;;;;5030651;28;20042;-57
2022/05/30 09:19:13;;;;;;;;;;;;;;;;;;5043179;28;19921;-59
2022/05/30 09:21:39;;;;;;;;;;;;;;;;;;5029763;28;20543;-58
2022/05/30 09:24:04;;;;;;;;;;;;;;;;;;5029849;28;19929;-57
2022/05/30 09:26:33;;;;;;;;;;;;;;;;;;5031936;28;19921;-59
2022/05/30 09:28:59;;;;;;;;;;;;;;;;;;5029653;28;19932;-61
2022/05/30 09:31:26;;;;;;;;;;;;;;;;;;5030604;28;20267;-61
2022/05/30 09:33:52;;;;;;;;;;;;;;;;;;5027711;28;19929;-60
2022/05/30 09:36:18;;;;;;;;;;;;;;;;;;5029163;28;19935;-59
2022/05/30 09:38:45;;;;;;;;;;;;;;;;;;5029162;28;19928;-58
2022/05/30 09:41:11;;;;;;;;;;;;;;;;;;5027189;28;19975;-61
2022/05/30 09:43:37;;;;;;;;;;;;;;;;;;5027344;28;19964;-61
2022/05/30 09:46:03;;;;;;;;;;;;;;;;;;5030165;28;19929;-60
2022/05/30 09:48:29;;;;;;;;;;;;;;;;;;5029319;28;19925;-60
2022/05/30 09:50:56;;;;;;;;;;;;;;;;;;5028237;28;20058;-59
2022/05/30 09:53:22;;;;;;;;;;;;;;;;;;5028684;28;19987;-61
2022/05/30 09:55:48;;;;;;;;;;;;;;;;;;5024136;28;20461;-59
2022/05/30 09:58:14;;;;;;;;;;;;;;;;;;5026877;28;19940;-60
2022/05/30 10:00:40;;;;;;;;;;;;;;;;;;5026464;28;19921;-59
2022/05/30 10:03:07;;;;;;;;;;;;;;;;;;5028110;28;19971;-60
2022/05/30 10:05:33;;;;;;;;;;;;;;;;;;5027298;28;19921;-59
2022/05/30 10:07:59;;;;;;;;;;;;;;;;;;5028766;28;19925;-57
2022/05/30 10:10:25;;;;;;;;;;;;;;;;;;5027958;28;20371;-59
2022/05/30 10:12:51;;;;;;;;;;;;;;;;;;5026523;28;20279;-61
2022/05/30 10:15:17;;;;;;;;;;;;;;;;;;5042357;28;19929;-58
2022/05/30 10:17:43;;;;;;;;;;;;;;;;;;5025653;28;20399;-58
2022/05/30 10:20:09;;;;;;;;;;;;;;;;;;5027875;28;19925;-56
2022/05/30 10:28:16;;;;;;;;;;;;;;;;;;5028613;28;20334;-60
2022/05/30 10:30:44;;;;;;;;;;;;;;;;;;5031215;28;20209;-60
2022/05/30 10:33:10;;;;;;;;;;;;;;;;;;5032826;28;19925;-59
2022/05/30 10:35:36;;;;;;;;;;;;;;;;;;5033005;28;19929;-59
2022/05/30 10:38:02;;;;;;;;;;;;;;;;;;5034199;28;19948;-60
2022/05/30 10:40:28;;;;;;;;;;;;;;;;;;5031622;28;19933;-60
2022/05/30 10:42:54;;;;;;;;;;;;;;;;;;5031838;28;19925;-60
2022/05/30 10:45:20;;;;;;;;;;;;;;;;;;5033246;28;20011;-59
2022/05/30 10:47:47;;;;;;;;;;;;;;;;;;5033202;28;19987;-59
2022/05/30 10:50:14;;;;;;;;;;;;;;;;;;5031544;28;19925;-59
2022/05/30 10:52:39;;;;;;;;;;;;;;;;;;5033449;28;19921;-59
2022/05/30 10:55:06;;;;;;;;;;;;;;;;;;5031853;28;19933;-59
2022/05/30 10:57:32;;;;;;;;;;;;;;;;;;5031543;28;19925;-59
2022/05/30 10:59:58;;;;;;;;;;;;;;;;;;5032162;28;19928;-59
2022/05/30 11:02:26;;;;;;;;;;;;;;;;;;5033242;28;20288;-59
2022/05/30 11:04:52;;;;;;;;;;;;;;;;;;5031935;28;19975;-59
2022/05/30 11:07:18;;;;;;;;;;;;;;;;;;5032890;28;19925;-60
2022/05/30 11:09:44;;;;;;;;;;;;;;;;;;5048355;28;19948;-60
2022/05/30 11:12:10;;;;;;;;;;;;;;;;;;5031127;28;19960;-60
2022/05/30 11:14:36;;;;;;;;;;;;;;;;;;5032525;28;19956;-59
2022/05/30 11:17:02;;;;;;;;;;;;;;;;;;5032510;28;19924;-60
2022/05/30 11:19:28;;;;;;;;;;;;;;;;;;5043711;28;20036;-59
2022/05/30 11:21:54;;;;;;;;;;;;;;;;;;5031012;28;19920;-58
2022/05/30 11:24:20;;;;;;;;;;;;;;;;;;5029748;28;20614;-57
2022/05/30 11:26:46;;;;;;;;;;;;;;;;;;5032249;28;20375;-59
2022/05/30 11:29:12;;;;;;;;;;;;;;;;;;5031702;28;19940;-60
2022/05/30 11:31:38;;;;;;;;;;;;;;;;;;5032856;28;20372;-57
2022/05/30 11:34:04;;;;;;;;;;;;;;;;;;5032053;28;19933;-59
2022/05/30 11:36:30;;;;;;;;;;;;;;;;;;5030188;28;20003;-57
2022/05/30 11:38:56;;;;;;;;;;;;;;;;;;5030584;28;19925;-58
2022/05/30 11:41:23;;;;;;;;;;;;;;;;;;5030456;28;19925;-58
2022/05/30 11:43:49;;;;;;;;;;;;;;;;;;5031641;28;19921;-58
2022/05/30 11:46:15;;;;;;;;;;;;;;;;;;5032590;28;20268;-58
2022/05/30 11:48:41;;;;;;;;;;;;;;;;;;5036749;28;19964;-59
2022/05/30 11:51:07;;;;;;;;;;;;;;;;;;5032493;28;20008;-59
2022/05/30 11:53:33;;;;;;;;;;;;;;;;;;5031012;28;19928;-60
2022/05/30 11:55:59;;;;;;;;;;;;;;;;;;5032587;28;20063;-60
2022/05/30 11:58:25;;;;;;;;;;;;;;;;;;5032258;28;19928;-60
2022/05/30 12:00:52;;;;;;;;;;;;;;;;;;5031953;28;19925;-60
2022/05/30 12:03:22;;;;;;;;;;;;;;;;;;5031649;28;20067;-58
2022/05/30 12:05:48;;;;;;;;;;;;;;;;;;5031884;28;20075;-55
2022/05/30 12:08:14;;;;;;;;;;;;;;;;;;5030479;28;20477;-63
2022/05/30 12:10:42;;;;;;;;;;;;;;;;;;5030884;28;19921;-58
2022/05/30 12:13:08;;;;;;;;;;;;;;;;;;5032213;28;20012;-58
2022/05/30 12:15:34;;;;;;;;;;;;;;;;;;5032199;28;20055;-61
2022/05/30 12:26:14;;;;;;;;;;;;;;;;;;5031648;28;20279;-60
2022/05/30 12:28:40;;;;;;;;;;;;;;;;;;5030622;28;19925;-59
2022/05/30 12:31:06;;;;;;;;;;;;;;;;;;5032382;28;19959;-61
2022/05/30 12:33:32;;;;;;;;;;;;;;;;;;5030764;28;19975;-64
2022/05/30 12:35:58;;;;;;;;;;;;;;;;;;5032111;28;19932;-63
2022/05/30 12:38:24;;;;;;;;;;;;;;;;;;5032798;28;19921;-65
2022/05/30 12:40:50;;;;;;;;;;;;;;;;;;5030601;28;19929;-65
2022/05/30 12:43:16;;;;;;;;;;;;;;;;;;5030628;28;19928;-64
2022/05/30 12:45:43;;;;;;;;;;;;;;;;;;5032099;28;20016;-65
2022/05/30 12:48:09;;;;;;;;;;;;;;;;;;5031897;28;19921;-65
2022/05/30 12:50:35;;;;;;;;;;;;;;;;;;5029279;28;20316;-64
2022/05/30 12:53:01;;;;;;;;;;;;;;;;;;5031063;28;19925;-65
2022/05/30 12:55:27;;;;;;;;;;;;;;;;;;5030959;28;19921;-65
2022/05/30 12:57:53;;;;;;;;;;;;;;;;;;5029168;28;19925;-64
2022/05/30 13:00:19;;;;;;;;;;;;;;;;;;5027604;28;19944;-64
2022/05/30 13:02:45;;;;;;;;;;;;;;;;;;5029505;28;19925;-64
2022/05/30 13:05:11;;;;;;;;;;;;;;;;;;5032248;28;19928;-62
2022/05/30 13:07:38;;;;;;;;;;;;;;;;;;5032706;28;19921;-61
2022/05/30 13:10:04;;;;;;;;;;;;;;;;;;5030128;28;19928;-61
2022/05/30 13:12:51;;;;;;;;;;;;;;;;;;5032347;28;19925;-62
2022/05/30 13:15:16;;;;;;;;;;;;;;;;;;5024212;28;20004;-62
2022/05/30 13:17:42;;;;;;;;;;;;;;;;;;5030114;28;20015;-63
2022/05/30 13:20:09;;;;;;;;;;;;;;;;;;5030152;28;20264;-62
2022/05/30 13:22:35;;;;;;;;;;;;;;;;;;5031232;28;20384;-60
2022/05/30 13:25:01;;;;;;;;;;;;;;;;;;5030798;28;19928;-65
2022/05/30 13:27:27;;;;;;;;;;;;;;;;;;5031575;28;19921;-64
2022/05/30 13:29:53;;;;;;;;;;;;;;;;;;5030244;28;19928;-66
2022/05/30 13:32:19;;;;;;;;;;;;;;;;;;5031943;28;19920;-64
2022/05/30 13:34:45;;;;;;;;;;;;;;;;;;5031799;28;19952;-65
2022/05/30 13:37:11;;;;;;;;;;;;;;;;;;5032228;28;19933;-64
2022/05/30 13:39:37;;;;;;;;;;;;;;;;;;5032290;28;19979;-63
2022/05/30 13:42:03;;;;;;;;;;;;;;;;;;5032907;28;19976;-63
2022/05/30 13:44:29;;;;;;;;;;;;;;;;;;5032616;28;19928;-64
2022/05/30 13:46:54;;;;;;;;;;;;;;;;;;5031428;28;19921;-65
2022/05/30 13:49:20;;;;;;;;;;;;;;;;;;5031150;28;19975;-65
2022/05/30 13:51:46;;;;;;;;;;;;;;;;;;5030129;28;19921;-65
2022/05/30 13:54:12;;;;;;;;;;;;;;;;;;5029478;28;19929;-64
2022/05/30 13:56:38;;;;;;;;;;;;;;;;;;5031081;28;19968;-64
2022/05/30 13:59:04;;;;;;;;;;;;;;;;;;5029350;28;19971;-63
2022/05/30 14:01:30;;;;;;;;;;;;;;;;;;5030551;28;19925;-64
2022/05/30 14:03:59;;;;;;;;;;;;;;;;;;5030765;28;19921;-62
2022/05/30 14:06:25;;;;;;;;;;;;;;;;;;5031776;28;19921;-62
2022/05/30 14:08:51;;;;;;;;;;;;;;;;;;5031108;28;19932;-60
2022/05/30 14:11:17;;;;;;;;;;;;;;;;;;5034512;28;19921;-61
2022/05/30 14:13:44;;;;;;;;;;;;;;;;;;5033523;28;19925;-62
2022/05/30 14:16:10;;;;;;;;;;;;;;;;;;5032332;28;19929;-64
2022/05/30 14:18:36;;;;;;;;;;;;;;;;;;5031177;28;20303;-64
2022/05/30 14:21:02;;;;;;;;;;;;;;;;;;5031556;28;19922;-64
2022/05/30 14:23:28;;;;;;;;;;;;;;;;;;5031531;28;19925;-64
2022/05/30 14:25:55;;;;;;;;;;;;;;;;;;5030523;28;19922;-64
2022/05/30 14:28:21;;;;;;;;;;;;;;;;;;5031708;28;20363;-64
2022/05/30 14:30:47;;;;;;;;;;;;;;;;;;5030692;28;19974;-64
2022/05/30 14:33:14;;;;;;;;;;;;;;;;;;5029315;28;19951;-64
2022/05/30 14:35:41;;;;;;;;;;;;;;;;;;5030572;28;19921;-64
2022/05/30 14:38:07;;;;;;;;;;;;;;;;;;5031254;28;19925;-64
2022/05/30 14:40:33;;;;;;;;;;;;;;;;;;5028994;28;20007;-64
2022/05/30 14:42:59;;;;;;;;;;;;;;;;;;5031590;28;20025;-64
2022/05/30 14:45:25;;;;;;;;;;;;;;;;;;5031486;28;19952;-63
2022/05/30 14:47:52;;;;;;;;;;;;;;;;;;5031286;28;19925;-65
2022/05/30 14:50:18;;;;;;;;;;;;;;;;;;5031397;28;19925;-65
2022/05/30 14:52:46;;;;;;;;;;;;;;;;;;5032022;28;19944;-65
2022/05/30 14:55:13;;;;;;;;;;;;;;;;;;5030993;28;19925;-66
2022/05/30 14:57:39;;;;;;;;;;;;;;;;;;5031642;28;20059;-65
2022/05/30 15:00:05;;;;;;;;;;;;;;;;;;5030016;28;20003;-65
2022/05/30 15:05:16;;;;;;;;;;;;;;;;;;5031499;28;20283;-65
2022/05/30 15:07:41;;;;;;;;;;;;;;;;;;5031700;28;19921;-65
2022/05/30 15:10:07;;;;;;;;;;;;;;;;;;5030927;28;19925;-65
2022/05/30 15:12:33;;;;;;;;;;;;;;;;;;5032157;28;19925;-65
2022/05/30 15:15:00;;;;;;;;;;;;;;;;;;5031903;28;19929;-65
2022/05/30 15:17:26;;;;;;;;;;;;;;;;;;5034757;28;19921;-65
2022/05/30 15:19:53;;;;;;;;;;;;;;;;;;5050772;28;19920;-65
2022/05/30 15:22:19;;;;;;;;;;;;;;;;;;5034054;28;19921;-65
2022/05/30 15:24:45;;;;;;;;;;;;;;;;;;5034845;28;19928;-65
2022/05/30 15:27:13;;;;;;;;;;;;;;;;;;5035090;28;19925;-65
2022/05/30 15:29:40;;;;;;;;;;;;;;;;;;5035181;28;19948;-65
2022/05/30 15:32:06;;;;;;;;;;;;;;;;;;5034704;28;19928;-65
2022/05/30 15:34:32;;;;;;;;;;;;;;;;;;5035030;28;19925;-65
2022/05/30 15:37:00;;;;;;;;;;;;;;;;;;5033882;28;19936;-65
2022/05/30 15:39:27;;;;;;;;;;;;;;;;;;5034040;28;19957;-66
2022/05/30 15:41:55;;;;;;;;;;;;;;;;;;5034517;28;19925;-65
2022/05/30 15:44:21;;;;;;;;;;;;;;;;;;5035053;28;19931;-65
2022/05/30 15:46:47;;;;;;;;;;;;;;;;;;5049491;28;19921;-65
2022/05/30 15:49:13;;;;;;;;;;;;;;;;;;5034872;28;19955;-65
2022/05/30 15:51:38;;;;;;;;;;;;;;;;;;5050095;28;19965;-65
2022/05/30 15:59:34;;;;;;;;;;;;;;;;;;5034148;28;20326;-65
2022/05/30 16:02:00;;;;;;;;;;;;;;;;;;5034246;28;19921;-65
2022/05/30 16:04:26;;;;;;;;;;;;;;;;;;5034770;28;19921;-65
2022/05/30 16:06:52;;;;;;;;;;;;;;;;;;5034303;28;19932;-65
2022/05/30 16:09:19;;;;;;;;;;;;;;;;;;5032237;28;19940;-65
2022/05/30 16:11:47;;;;;;;;;;;;;;;;;;5034464;28;19960;-65
2022/05/30 16:14:12;;;;;;;;;;;;;;;;;;5034393;28;19932;-65
2022/05/30 16:16:39;;;;;;;;;;;;;;;;;;5032667;28;20431;-65
2022/05/30 16:19:06;;;;;;;;;;;;;;;;;;5033876;28;19964;-65
2022/05/30 16:21:32;;;;;;;;;;;;;;;;;;5034008;28;19921;-65
2022/05/30 16:23:58;;;;;;;;;;;;;;;;;;5033960;28;19928;-65
2022/05/30 16:26:24;;;;;;;;;;;;;;;;;;5034144;28;19990;-65
2022/05/30 16:28:50;;;;;;;;;;;;;;;;;;5032214;28;19921;-65
2022/05/30 16:31:16;;;;;;;;;;;;;;;;;;5033455;28;19921;-65
2022/05/30 16:33:42;;;;;;;;;;;;;;;;;;5033870;28;19991;-65
2022/05/30 16:36:09;;;;;;;;;;;;;;;;;;5034012;28;19925;-65
2022/05/30 16:38:35;;;;;;;;;;;;;;;;;;5033398;28;20008;-65
2022/05/30 16:41:01;;;;;;;;;;;;;;;;;;5033614;28;19929;-65
2022/05/30 16:43:27;;;;;;;;;;;;;;;;;;5033780;28;19928;-65
2022/05/30 16:45:54;;;;;;;;;;;;;;;;;;5033401;28;19925;-65
2022/05/30 16:48:20;;;;;;;;;;;;;;;;;;5033919;28;19921;-65
2022/05/30 16:50:46;;;;;;;;;;;;;;;;;;5033437;28;19921;-65
2022/05/30 16:53:12;;;;;;;;;;;;;;;;;;5031646;28;19920;-65
2022/05/30 16:55:38;;;;;;;;;;;;;;;;;;5033380;28;20027;-65
2022/05/30 16:58:04;;;;;;;;;;;;;;;;;;5033764;28;19921;-65
2022/05/30 17:00:30;;;;;;;;;;;;;;;;;;5032759;28;19932;-65
2022/05/30 17:02:56;;;;;;;;;;;;;;;;;;5033581;28;19921;-65
2022/05/30 17:05:22;;;;;;;;;;;;;;;;;;5033197;28;19925;-65
2022/05/30 17:07:50;;;;;;;;;;;;;;;;;;5032929;28;19925;-65
2022/05/30 17:10:16;;;;;;;;;;;;;;;;;;5033257;28;19964;-65
2022/05/30 17:12:42;;;;;;;;;;;;;;;;;;5031802;28;19960;-65
2022/05/30 17:15:08;;;;;;;;;;;;;;;;;;5032456;28;20008;-65
2022/05/30 17:17:34;;;;;;;;;;;;;;;;;;5033234;28;19929;-65